Time;durP1;ratioP1;P1;durP2;ratioP2;P2;SDS_P1;SDS_P2;PMS_P1;PMS_P2;Temp;Humidity;BMP_temperature;BMP_pressure;BME280_temperature;BME280_humidity;BME280_pressure;Samples;Min_cycle;Max_cycle;Signal;HPM_P1;HPM_P2
2022/02/11 00:08:39;;;;;;;;;;;;;;;16.90;51.69;100978.47;4917832;28;98315;-62
2022/02/11 00:11:06;;;;;;;;;;;;;;;16.89;51.87;100971.38;4922646;28;115994;-56
2022/02/11 00:13:31;;;;;;;;;;;;;;;16.88;51.70;100969.75;4923385;28;98154;-55
2022/02/11 00:15:57;;;;;;;;;;;;;;;16.88;51.83;100974.41;4921801;28;127842;-56
2022/02/11 00:18:23;;;;;;;;;;;;;;;16.86;51.62;100974.72;4921538;28;128520;-63
2022/02/11 00:20:50;;;;;;;;;;;;;;;16.86;51.88;100977.44;4939876;28;98136;-56
2022/02/11 00:23:17;;;;;;;;;;;;;;;16.86;51.69;100979.34;4943246;28;99222;-63
2022/02/11 00:25:55;;;;;;;;;;;;;;;16.84;51.69;100974.19;4942054;28;108717;-56
2022/02/11 00:29:58;;;;;;;;;;;;;;;16.83;51.74;100977.22;4942892;28;97993;-56
2022/02/11 00:33:39;;;;;;;;;;;;;;;16.83;51.72;100966.34;4940488;28;98216;-63
2022/02/11 00:36:09;;;;;;;;;;;;;;;16.81;51.81;100974.78;4941002;28;97993;-56
2022/02/11 00:38:50;;;;;;;;;;;;;;;16.82;51.61;100978.31;4943492;28;98330;-63
2022/02/11 00:47:08;;;;;;;;;;;;;;;16.79;51.67;100979.72;4941828;28;98228;-56
2022/02/11 01:03:22;;;;;;;;;;;;;;;16.76;51.70;100974.06;4931993;28;97953;-57
2022/02/11 01:05:48;;;;;;;;;;;;;;;16.75;51.65;100975.16;4922445;28;98507;-62
2022/02/11 01:08:14;;;;;;;;;;;;;;;16.74;51.67;100973.53;4922068;28;124442;-63
2022/02/11 01:10:40;;;;;;;;;;;;;;;16.73;51.70;100972.72;4922862;28;98871;-62
2022/02/11 01:13:06;;;;;;;;;;;;;;;16.73;51.68;100970.00;4923370;28;97864;-56
2022/02/11 01:15:34;;;;;;;;;;;;;;;16.72;51.65;100967.56;4921845;28;98827;-63
2022/02/11 01:18:03;;;;;;;;;;;;;;;16.71;51.73;100961.31;4928742;28;98827;-56
2022/02/11 01:31:17;;;;;;;;;;;;;;;16.67;51.76;100958.38;4919012;28;111608;-56
2022/02/11 01:45:07;;;;;;;;;;;;;;;16.64;51.70;100944.53;4920670;28;98004;-63
2022/02/11 01:48:00;;;;;;;;;;;;;;;16.63;51.48;100946.47;4903150;28;98077;-56
2022/02/11 01:50:43;;;;;;;;;;;;;;;16.62;51.60;100941.28;4915619;28;98738;-56
2022/02/11 02:04:44;;;;;;;;;;;;;;;16.57;51.88;100928.59;4939596;28;97915;-63
2022/02/11 02:12:31;;;;;;;;;;;;;;;16.54;51.73;100937.34;4921049;28;98548;-62
2022/02/11 02:15:27;;;;;;;;;;;;;;;16.54;51.42;100931.88;4939451;28;98409;-63
2022/02/11 02:25:40;;;;;;;;;;;;;;;16.50;51.47;100911.81;4922138;28;97957;-56
2022/02/11 02:28:43;;;;;;;;;;;;;;;16.50;51.58;100919.97;4941387;28;97878;-55
2022/02/11 02:57:54;;;;;;;;;;;;;;;16.41;51.43;100889.13;4937943;28;97944;-55
2022/02/11 03:55:42;;;;;;;;;;;;;;;16.24;51.57;100886.94;4924956;28;98548;-56
2022/02/11 03:58:30;;;;;;;;;;;;;;;16.23;51.53;100884.50;4923215;28;100353;-63
2022/02/11 04:20:45;;;;;;;;;;;;;;;16.15;51.40;100875.91;4922646;28;98164;-55
2022/02/11 04:26:10;;;;;;;;;;;;;;;16.14;51.68;100876.19;4937254;28;97977;-56
2022/02/11 04:55:39;;;;;;;;;;;;;;;16.04;51.37;100890.75;4916419;28;98135;-55
2022/02/11 05:00:50;;;;;;;;;;;;;;;16.02;51.59;100895.66;4929129;28;98401;-62
2022/02/11 05:03:16;;;;;;;;;;;;;;;16.02;51.83;100895.66;4902840;28;100599;-56
2022/02/11 05:05:51;;;;;;;;;;;;;;;16.00;51.34;100892.44;4933706;28;98422;-62
2022/02/11 05:08:21;;;;;;;;;;;;;;;16.00;51.52;100902.53;4940388;28;97865;-56
2022/02/11 05:10:48;;;;;;;;;;;;;;;16.00;51.47;100905.25;4939291;28;98419;-62
2022/02/11 05:13:15;;;;;;;;;;;;;;;15.98;51.37;100902.78;4940015;28;101602;-56
2022/02/11 05:15:41;;;;;;;;;;;;;;;15.98;51.47;100905.50;4940668;28;98423;-55
2022/02/11 05:18:08;;;;;;;;;;;;;;;15.97;51.55;100903.91;4922950;28;98335;-55
2022/02/11 05:20:34;;;;;;;;;;;;;;;15.95;51.32;100896.06;4941230;28;97789;-56
2022/02/11 05:23:05;;;;;;;;;;;;;;;15.95;51.50;100897.94;4939923;28;109973;-61
2022/02/11 05:25:30;;;;;;;;;;;;;;;15.95;51.59;100903.38;4941465;28;98719;-55
2022/02/11 05:27:56;;;;;;;;;;;;;;;15.91;51.58;100897.72;4927180;28;128069;-55
2022/02/11 05:30:22;;;;;;;;;;;;;;;15.94;51.41;100907.19;4920573;28;118333;-55
2022/02/11 05:32:48;;;;;;;;;;;;;;;15.92;51.36;100912.94;4951798;28;127407;-62
2022/02/11 05:35:14;;;;;;;;;;;;;;;15.92;51.54;100906.69;4920210;28;127987;-62
2022/02/11 05:37:40;;;;;;;;;;;;;;;15.90;51.52;100904.25;4921115;28;125405;-61
2022/02/11 05:40:06;;;;;;;;;;;;;;;15.89;51.38;100910.00;4921264;28;98032;-63
2022/02/11 05:42:32;;;;;;;;;;;;;;;15.90;51.15;100927.91;4921365;28;120031;-62
2022/02/11 05:44:58;;;;;;;;;;;;;;;15.88;51.24;100922.78;4921617;28;98148;-62
2022/02/11 05:47:24;;;;;;;;;;;;;;;15.87;51.56;100929.28;4920993;28;127610;-62
2022/02/11 05:49:50;;;;;;;;;;;;;;;15.88;51.63;100933.66;4922868;28;98034;-63
2022/02/11 05:52:16;;;;;;;;;;;;;;;15.87;51.29;100934.72;4920368;28;127155;-62
2022/02/11 05:54:43;;;;;;;;;;;;;;;15.86;51.48;100930.41;4922701;28;98460;-63
2022/02/11 05:57:09;;;;;;;;;;;;;;;15.85;51.31;100933.44;4922105;28;98435;-62
2022/02/11 05:59:35;;;;;;;;;;;;;;;15.85;51.44;100938.88;4921236;28;117705;-62
2022/02/11 06:02:01;;;;;;;;;;;;;;;15.83;51.49;100944.56;4951921;28;127730;-62
2022/02/11 06:04:27;;;;;;;;;;;;;;;15.83;51.31;100944.56;4917891;28;127637;-62
2022/02/11 06:06:53;;;;;;;;;;;;;;;15.82;51.28;100951.13;4921734;28;128357;-62
2022/02/11 06:09:19;;;;;;;;;;;;;;;15.80;51.48;100942.47;4921995;28;98219;-62
2022/02/11 06:11:45;;;;;;;;;;;;;;;15.80;51.47;100949.78;4922026;28;98217;-62
2022/02/11 06:14:13;;;;;;;;;;;;;;;15.77;51.22;100959.34;4920885;28;122641;-62
2022/02/11 06:16:39;;;;;;;;;;;;;;;15.77;51.43;100955.81;4927712;28;97870;-62
2022/02/11 06:19:05;;;;;;;;;;;;;;;15.77;51.25;100961.25;4922075;28;98064;-62
2022/02/11 06:21:31;;;;;;;;;;;;;;;15.76;51.12;100959.59;4920613;28;127578;-62
2022/02/11 06:23:56;;;;;;;;;;;;;;;15.74;51.29;100959.91;4937555;28;121825;-62
2022/02/11 06:26:23;;;;;;;;;;;;;;;15.75;51.49;100971.59;4939653;28;126770;-63
2022/02/11 06:28:50;;;;;;;;;;;;;;;15.72;51.54;100978.44;4938734;28;116633;-62
2022/02/11 06:31:16;;;;;;;;;;;;;;;15.72;51.39;100978.44;4926599;28;99374;-62
2022/02/11 06:33:42;;;;;;;;;;;;;;;15.69;51.19;100985.25;4921228;28;98550;-62
2022/02/11 06:36:08;;;;;;;;;;;;;;;15.69;51.35;100990.69;4926570;28;98158;-62
2022/02/11 06:38:34;;;;;;;;;;;;;;;15.68;51.26;100991.78;4921153;28;97853;-62
2022/02/11 06:41:00;;;;;;;;;;;;;;;15.67;51.41;100994.78;4919542;28;98025;-62
2022/02/11 06:43:26;;;;;;;;;;;;;;;15.67;51.25;101000.22;4923656;28;127874;-62
2022/02/11 06:45:52;;;;;;;;;;;;;;;15.66;51.51;100998.59;4925754;28;127674;-62
2022/02/11 06:48:21;;;;;;;;;;;;;;;15.65;51.20;101007.84;4928409;28;98028;-62
2022/02/11 06:50:47;;;;;;;;;;;;;;;15.65;51.47;101003.22;4934701;28;97958;-62
2022/02/11 06:53:14;;;;;;;;;;;;;;;15.65;51.26;101011.38;4928257;28;99103;-63
2022/02/11 06:55:40;;;;;;;;;;;;;;;15.64;51.34;101007.00;4927339;28;98071;-62
2022/02/11 06:58:06;;;;;;;;;;;;;;;15.65;51.38;101013.28;4932518;28;98230;-63
2022/02/11 07:00:32;;;;;;;;;;;;;;;15.64;51.16;101023.31;4945082;28;98556;-62
2022/02/11 07:02:58;;;;;;;;;;;;;;;15.63;51.25;101029.81;4961832;28;103116;-62
2022/02/11 07:05:25;;;;;;;;;;;;;;;15.63;51.36;101029.81;4943638;28;98616;-63
2022/02/11 07:07:51;;;;;;;;;;;;;;;15.63;51.08;101050.75;4946557;28;97786;-63
2022/02/11 07:10:17;;;;;;;;;;;;;;;15.61;51.38;101051.06;4944966;28;98442;-62
2022/02/11 07:12:43;;;;;;;;;;;;;;;15.60;51.07;101044.00;4946273;28;128558;-62
2022/02/11 07:15:09;;;;;;;;;;;;;;;15.63;51.45;101040.69;4945982;28;103588;-57
2022/02/11 07:17:35;;;;;;;;;;;;;;;15.65;51.34;101040.47;4943050;28;98395;-56
2022/02/11 07:20:01;;;;;;;;;;;;;;;15.66;51.06;101044.78;4926469;28;116530;-62
2022/02/11 07:22:34;;;;;;;;;;;;;;;15.66;51.15;101034.72;4927317;28;101221;-57
2022/02/11 07:25:05;;;;;;;;;;;;;;;15.66;50.93;101039.34;4936360;28;97931;-62
2022/02/11 07:27:31;;;;;;;;;;;;;;;15.67;50.88;101046.41;4945786;28;97920;-62
2022/02/11 07:29:57;;;;;;;;;;;;;;;15.67;50.98;101060.78;4946691;28;98654;-57
2022/02/11 07:32:25;;;;;;;;;;;;;;;15.68;51.08;101064.34;4946421;28;98321;-63
2022/02/11 07:34:53;;;;;;;;;;;;;;;15.68;50.96;101059.72;4944681;28;98084;-62
2022/02/11 07:37:20;;;;;;;;;;;;;;;15.67;50.92;101074.38;4943132;28;98054;-63
2022/02/11 07:39:46;;;;;;;;;;;;;;;15.67;51.26;101074.38;4946144;28;98443;-63
2022/02/11 07:42:13;;;;;;;;;;;;;;;15.68;51.37;101076.03;4945975;28;117947;-56
2022/02/11 07:44:39;;;;;;;;;;;;;;;15.68;51.38;101077.94;4934319;28;98672;-56
2022/02/11 07:47:05;;;;;;;;;;;;;;;15.66;50.97;101078.22;4927412;28;111241;-56
2022/02/11 07:49:32;;;;;;;;;;;;;;;15.67;51.17;101082.53;4959194;28;98479;-56
2022/02/11 07:51:58;;;;;;;;;;;;;;;15.67;51.25;101090.69;4926740;28;98280;-56
2022/02/11 07:54:26;;;;;;;;;;;;;;;15.67;51.42;101089.88;4923199;28;128241;-56
2022/02/11 07:56:56;;;;;;;;;;;;;;;15.66;51.15;101091.78;4923467;28;97967;-56
2022/02/11 07:59:22;;;;;;;;;;;;;;;15.67;51.03;101100.75;4924204;28;103691;-55
2022/02/11 08:01:48;;;;;;;;;;;;;;;15.67;51.28;101100.75;4953239;28;128250;-55
2022/02/11 08:04:14;;;;;;;;;;;;;;;15.67;51.26;101104.28;4921980;28;98916;-56
2022/02/11 08:06:39;;;;;;;;;;;;;;;15.68;51.06;101113.28;4922412;28;116706;-56
2022/02/11 08:09:06;;;;;;;;;;;;;;;15.67;51.38;101117.06;4923817;28;127999;-56
2022/02/11 08:11:32;;;;;;;;;;;;;;;15.66;51.02;101121.69;4942196;28;99032;-55
2022/02/11 08:13:58;;;;;;;;;;;;;;;15.66;51.40;101113.53;4935937;28;98780;-55
2022/02/11 08:16:24;;;;;;;;;;;;;;;15.66;51.41;101126.31;4942659;28;107345;-56
2022/02/11 08:18:50;;;;;;;;;;;;;;;15.66;51.34;101129.03;4940935;28;128165;-56
2022/02/11 08:21:16;;;;;;;;;;;;;;;15.65;51.24;101130.94;4940884;28;127877;-56
2022/02/11 08:23:42;;;;;;;;;;;;;;;15.65;51.04;101135.56;4942551;28;98001;-56
2022/02/11 08:26:08;;;;;;;;;;;;;;;15.65;51.26;101139.09;4942087;28;103524;-55
2022/02/11 08:28:34;;;;;;;;;;;;;;;15.66;51.15;101145.34;4942041;28;98814;-55
2022/02/11 08:31:00;;;;;;;;;;;;;;;15.67;51.29;101146.94;4923407;28;99158;-55
2022/02/11 08:33:26;;;;;;;;;;;;;;;15.68;51.34;101143.97;4922704;28;98983;-56
2022/02/11 08:35:53;;;;;;;;;;;;;;;15.73;51.20;101150.44;4922399;28;97834;-55
2022/02/11 08:38:19;;;;;;;;;;;;;;;15.74;51.17;101158.31;4924648;28;102216;-55
2022/02/11 08:40:45;;;;;;;;;;;;;;;15.76;51.25;101158.00;4925492;28;113979;-56
2022/02/11 08:43:11;;;;;;;;;;;;;;;15.78;51.16;101162.06;4941036;28;108518;-56
2022/02/11 08:45:40;;;;;;;;;;;;;;;15.84;50.97;101166.38;4941103;28;105173;-56
2022/02/11 08:48:09;;;;;;;;;;;;;;;15.89;51.15;101163.63;4923749;28;99126;-56
2022/02/11 08:50:36;;;;;;;;;;;;;;;15.96;50.88;101179.59;4935395;28;98990;-56
2022/02/11 08:53:04;;;;;;;;;;;;;;;16.05;50.99;101177.06;4941915;28;98459;-56
2022/02/11 08:55:30;;;;;;;;;;;;;;;16.10;50.64;101175.09;4941770;28;97943;-56
2022/02/11 08:57:59;;;;;;;;;;;;;;;16.12;50.89;101177.53;4940767;28;126876;-56
2022/02/11 09:00:28;;;;;;;;;;;;;;;16.12;51.03;101180.25;4940325;28;98144;-56
2022/02/11 09:02:55;;;;;;;;;;;;;;;16.11;51.13;101184.06;4941546;28;116292;-56
2022/02/11 09:05:22;;;;;;;;;;;;;;;16.14;51.01;101194.38;4939615;28;97673;-56
2022/02/11 09:07:54;;;;;;;;;;;;;;;16.16;51.36;101203.88;4942766;28;98395;-56
2022/02/11 09:10:22;;;;;;;;;;;;;;;16.17;51.02;101204.69;4933404;28;99261;-57
2022/02/11 09:12:48;;;;;;;;;;;;;;;16.17;51.21;101210.13;4937024;28;97831;-55
2022/02/11 09:15:14;;;;;;;;;;;;;;;16.20;51.13;101217.72;4921745;28;97762;-56
2022/02/11 09:17:40;;;;;;;;;;;;;;;16.43;50.64;101222.38;4921776;28;98252;-56
2022/02/11 09:20:06;;;;;;;;;;;;;;;16.48;50.82;101221.50;4920091;28;98561;-56
2022/02/11 09:22:32;;;;;;;;;;;;;;;16.52;50.80;101229.91;4922180;28;98408;-57
2022/02/11 09:24:58;;;;;;;;;;;;;;;16.49;50.72;101235.91;4930966;28;97990;-56
2022/02/11 09:27:24;;;;;;;;;;;;;;;16.61;50.77;101233.59;4940406;28;129112;-56
2022/02/11 09:29:50;;;;;;;;;;;;;;;16.67;50.59;101230.53;4927228;28;99179;-56
2022/02/11 09:32:17;;;;;;;;;;;;;;;16.77;50.63;101237.81;4938443;28;126830;-57
2022/02/11 09:34:42;;;;;;;;;;;;;;;16.90;50.42;101230.88;4933719;28;97950;-56
2022/02/11 09:37:08;;;;;;;;;;;;;;;17.08;50.19;101230.06;4928118;28;107762;-56
2022/02/11 09:39:34;;;;;;;;;;;;;;;17.67;49.30;101225.16;4921903;28;97921;-57
2022/02/11 09:42:00;;;;;;;;;;;;;;;17.82;49.44;101224.94;4925234;28;115086;-56
2022/02/11 09:44:27;;;;;;;;;;;;;;;18.00;49.26;101231.47;4941263;28;97832;-56
2022/02/11 09:46:54;;;;;;;;;;;;;;;18.04;49.43;101231.69;4940653;28;98337;-56
2022/02/11 09:49:20;;;;;;;;;;;;;;;18.39;49.12;101231.06;4971716;28;98956;-56
2022/02/11 09:51:47;;;;;;;;;;;;;;;18.44;49.42;101230.13;4941112;28;98211;-56
2022/02/11 09:54:19;;;;;;;;;;;;;;;19.54;47.79;101231.97;4936658;28;97917;-56
2022/02/11 09:56:45;;;;;;;;;;;;;;;20.33;47.13;101229.47;4952031;28;109946;-56
2022/02/11 09:59:11;;;;;;;;;;;;;;;20.81;47.06;101228.69;4923709;28;128038;-57
2022/02/11 10:01:40;;;;;;;;;;;;;;;20.94;47.50;101232.44;4937218;28;126605;-56
2022/02/11 10:04:19;;;;;;;;;;;;;;;21.35;47.26;101236.75;4966228;28;107102;-57
2022/02/11 10:06:48;;;;;;;;;;;;;;;21.40;47.41;101244.81;4921362;28;102795;-57
2022/02/11 10:09:15;;;;;;;;;;;;;;;21.02;48.22;101261.00;4932636;28;98431;-57
2022/02/11 10:11:42;;;;;;;;;;;;;;;20.73;48.78;101245.13;4918364;28;112914;-56
2022/02/11 10:14:24;;;;;;;;;;;;;;;21.01;48.16;101253.91;4920531;28;104260;-57
2022/02/11 10:17:04;;;;;;;;;;;;;;;20.80;48.47;101257.22;4921109;28;98328;-57
2022/02/11 10:19:37;;;;;;;;;;;;;;;21.08;48.13;101255.03;4920154;28;99033;-56
2022/02/11 10:22:08;;;;;;;;;;;;;;;20.88;48.54;101255.66;4920501;28;98182;-56
2022/02/11 10:24:34;;;;;;;;;;;;;;;20.66;48.89;101250.25;4921215;28;97776;-57
2022/02/11 10:27:00;;;;;;;;;;;;;;;20.49;49.24;101253.72;4950676;28;127463;-57
2022/02/11 10:29:40;;;;;;;;;;;;;;;20.91;48.56;101249.53;4920183;28;128257;-57
2022/02/11 10:32:06;;;;;;;;;;;;;;;20.93;48.36;101233.56;4921965;28;113768;-56
2022/02/11 10:34:32;;;;;;;;;;;;;;;21.06;48.25;101238.13;4920783;28;111359;-57
2022/02/11 10:36:58;;;;;;;;;;;;;;;20.82;48.72;101241.28;4939262;28;128356;-58
2022/02/11 10:39:27;;;;;;;;;;;;;;;20.44;49.29;101243.69;4920130;28;127196;-56
2022/02/11 10:41:55;;;;;;;;;;;;;;;20.79;48.65;101235.66;4940769;28;97740;-56
2022/02/11 10:44:26;;;;;;;;;;;;;;;21.27;47.88;101230.09;4939582;28;98761;-57
2022/02/11 10:46:54;;;;;;;;;;;;;;;21.20;48.12;101227.00;4940385;28;98381;-57
2022/02/11 10:49:30;;;;;;;;;;;;;;;21.38;47.88;101225.13;4939679;28;99235;-56
2022/02/11 10:52:03;;;;;;;;;;;;;;;21.59;47.73;101238.19;4937215;28;120356;-57
2022/02/11 10:54:34;;;;;;;;;;;;;;;21.53;47.88;101240.28;4933139;28;98174;-58
2022/02/11 10:57:01;;;;;;;;;;;;;;;21.33;48.38;101239.00;4919836;28;99176;-57
2022/02/11 10:59:28;;;;;;;;;;;;;;;21.11;48.74;101237.16;4925566;28;98260;-57
2022/02/11 11:01:59;;;;;;;;;;;;;;;20.87;49.09;101239.50;4938428;28;98671;-56
2022/02/11 11:04:25;;;;;;;;;;;;;;;20.58;49.34;101241.66;4930675;28;98081;-56
2022/02/11 11:06:51;;;;;;;;;;;;;;;20.28;49.69;101248.75;4921028;28;98203;-63
2022/02/11 11:09:17;;;;;;;;;;;;;;;20.03;50.08;101241.19;4921805;28;98500;-62
2022/02/11 11:11:44;;;;;;;;;;;;;;;19.78;50.15;101246.19;4922443;28;98652;-57
2022/02/11 11:14:15;;;;;;;;;;;;;;;19.57;50.22;101245.84;4921047;28;97952;-63
2022/02/11 11:16:44;;;;;;;;;;;;;;;19.36;50.49;101245.47;4920891;28;98442;-56
2022/02/11 11:19:10;;;;;;;;;;;;;;;19.15;50.78;101244.31;4923278;28;97919;-56
2022/02/11 11:21:44;;;;;;;;;;;;;;;18.97;50.75;101242.50;4940637;28;106824;-62
2022/02/11 11:24:10;;;;;;;;;;;;;;;18.76;50.80;101245.66;4936338;28;112810;-63
2022/02/11 11:26:46;;;;;;;;;;;;;;;18.58;51.00;101250.06;4919320;28;99126;-63
2022/02/11 11:29:15;;;;;;;;;;;;;;;18.42;50.95;101239.72;4973507;27;98343;-57
2022/02/11 11:31:55;;;;;;;;;;;;;;;18.28;51.16;101248.72;4943961;28;98422;-56
2022/02/11 11:34:21;;;;;;;;;;;;;;;18.12;51.14;101250.09;4944000;28;99501;-57
2022/02/11 11:36:49;;;;;;;;;;;;;;;17.97;51.10;101253.88;4939967;28;98572;-63
2022/02/11 11:39:15;;;;;;;;;;;;;;;17.84;51.16;101241.81;4924031;28;98716;-56
2022/02/11 11:41:41;;;;;;;;;;;;;;;17.74;51.20;101250.13;4923710;28;97620;-63
2022/02/11 11:44:24;;;;;;;;;;;;;;;17.64;51.24;101255.72;4926755;28;98110;-56
2022/02/11 11:46:51;;;;;;;;;;;;;;;17.52;51.48;101250.72;4943144;28;98420;-63
2022/02/11 11:49:18;;;;;;;;;;;;;;;17.45;51.41;101242.13;4941997;28;110092;-56
2022/02/11 11:51:47;;;;;;;;;;;;;;;17.38;51.35;101245.19;4943071;28;98236;-57
2022/02/11 11:54:16;;;;;;;;;;;;;;;17.31;51.29;101244.75;4936180;28;97928;-56
2022/02/11 11:56:49;;;;;;;;;;;;;;;17.29;51.46;101248.84;4905393;28;98461;-63
2022/02/11 11:59:19;;;;;;;;;;;;;;;17.35;51.12;101244.97;4907994;28;98695;-56
2022/02/11 12:01:55;;;;;;;;;;;;;;;17.27;51.13;101249.16;4923907;28;97860;-56
2022/02/11 12:04:29;;;;;;;;;;;;;;;17.35;50.98;101245.78;4904342;28;97885;-63
2022/02/11 12:07:00;;;;;;;;;;;;;;;17.39;50.98;101248.72;4922599;28;98451;-63
2022/02/11 12:09:27;;;;;;;;;;;;;;;17.45;50.96;101244.84;4928132;28;98280;-56
2022/02/11 12:12:12;;;;;;;;;;;;;;;17.59;50.54;101240.25;4921522;28;122805;-57
2022/02/11 12:14:39;;;;;;;;;;;;;;;17.73;50.45;101239.53;4924625;28;97805;-56
2022/02/11 12:17:08;;;;;;;;;;;;;;;17.73;50.67;101237.59;4922470;28;107069;-57
2022/02/11 12:19:34;;;;;;;;;;;;;;;17.67;50.69;101242.31;4922937;28;98259;-64
2022/02/11 12:22:00;;;;;;;;;;;;;;;17.60;50.85;101241.88;4922941;28;116422;-56
2022/02/11 12:27:20;;;;;;;;;;;;;;;17.38;51.19;101247.13;4942596;28;98153;-63
2022/02/11 12:29:50;;;;;;;;;;;;;;;17.29;51.33;101251.59;4942533;28;99084;-63
2022/02/11 12:32:20;;;;;;;;;;;;;;;17.17;51.53;101244.69;4942379;28;98046;-63
2022/02/11 12:34:48;;;;;;;;;;;;;;;17.10;51.54;101248.88;4941770;28;98024;-63
2022/02/11 12:37:14;;;;;;;;;;;;;;;17.02;51.68;101253.03;4941732;28;98986;-63
2022/02/11 12:39:40;;;;;;;;;;;;;;;16.94;51.75;101248.25;4941164;28;127164;-57
2022/02/11 12:42:05;;;;;;;;;;;;;;;16.90;51.87;101252.66;4940303;28;106640;-56
2022/02/11 12:44:32;;;;;;;;;;;;;;;16.84;51.66;101249.16;4941663;28;118270;-63
2022/02/11 12:46:59;;;;;;;;;;;;;;;16.81;51.96;101247.00;4940691;28;98399;-63
2022/02/11 12:49:25;;;;;;;;;;;;;;;16.80;51.78;101247.31;4940549;28;98448;-63
2022/02/11 12:51:53;;;;;;;;;;;;;;;16.78;51.81;101253.06;4942033;28;121126;-56
2022/02/11 12:54:19;;;;;;;;;;;;;;;16.76;51.65;101249.00;4938670;28;98005;-56
2022/02/11 12:56:46;;;;;;;;;;;;;;;16.76;51.71;101251.72;4922563;28;99040;-56
2022/02/11 12:59:12;;;;;;;;;;;;;;;16.74;51.75;101256.63;4920042;28;98321;-57
2022/02/11 13:01:38;;;;;;;;;;;;;;;16.73;51.93;101255.81;4910966;28;117981;-56
2022/02/11 13:04:04;;;;;;;;;;;;;;;16.72;51.72;101258.81;4915337;28;116866;-57
2022/02/11 13:06:33;;;;;;;;;;;;;;;16.71;51.66;101268.88;4936121;28;127840;-56
2022/02/11 13:09:01;;;;;;;;;;;;;;;16.75;51.57;101259.06;4925813;28;123921;-56
2022/02/11 13:11:27;;;;;;;;;;;;;;;16.80;51.65;101267.19;4910886;28;98111;-56
2022/02/11 13:14:06;;;;;;;;;;;;;;;16.89;51.54;101268.16;4935483;28;98484;-63
2022/02/11 13:16:37;;;;;;;;;;;;;;;16.98;51.35;101271.06;4934103;28;113689;-61
2022/02/11 13:19:13;;;;;;;;;;;;;;;17.02;51.43;101277.56;4934700;28;98809;-63
2022/02/11 13:21:39;;;;;;;;;;;;;;;17.07;51.35;101282.13;4916813;28;99566;-62
2022/02/11 13:24:06;;;;;;;;;;;;;;;17.19;51.10;101271.63;4920621;28;98166;-63
2022/02/11 13:26:32;;;;;;;;;;;;;;;17.29;51.11;101273.38;4918705;28;98778;-63
2022/02/11 13:28:58;;;;;;;;;;;;;;;17.39;51.02;101275.97;4927079;28;98634;-62
2022/02/11 13:31:24;;;;;;;;;;;;;;;17.42;50.85;101284.38;4928071;28;98150;-63
2022/02/11 13:34:07;;;;;;;;;;;;;;;17.52;50.99;101285.34;4938411;28;97941;-63
2022/02/11 13:36:33;;;;;;;;;;;;;;;17.63;50.79;101292.25;4926690;28;99237;-63
2022/02/11 13:39:01;;;;;;;;;;;;;;;17.66;50.91;101289.75;4936036;28;126064;-63
2022/02/11 13:41:38;;;;;;;;;;;;;;;17.73;50.84;101296.78;4938440;28;97976;-63
2022/02/11 13:44:08;;;;;;;;;;;;;;;17.68;51.16;101305.81;4937639;28;98860;-63
2022/02/11 13:46:36;;;;;;;;;;;;;;;17.59;51.23;101292.03;4929301;28;122154;-63
2022/02/11 13:49:03;;;;;;;;;;;;;;;17.51;51.39;101306.34;4933553;28;99064;-63
2022/02/11 13:51:29;;;;;;;;;;;;;;;17.49;51.41;101305.84;4932285;28;118078;-63
2022/02/11 13:53:55;;;;;;;;;;;;;;;17.52;51.53;101312.59;4936562;28;98111;-62
2022/02/11 13:56:33;;;;;;;;;;;;;;;17.51;51.47;101322.69;4933343;28;119709;-63
2022/02/11 13:59:07;;;;;;;;;;;;;;;17.47;51.58;101327.09;4926577;28;98587;-63
2022/02/11 14:01:37;;;;;;;;;;;;;;;17.41;51.70;101331.81;4938518;28;98081;-63
2022/02/11 14:04:14;;;;;;;;;;;;;;;17.34;51.88;101330.56;4936561;28;97827;-62
2022/02/11 14:06:49;;;;;;;;;;;;;;;17.28;51.80;101337.97;4922160;28;98974;-63
2022/02/11 14:09:35;;;;;;;;;;;;;;;17.20;51.87;101346.78;4937496;28;98438;-63
2022/02/11 14:12:01;;;;;;;;;;;;;;;17.15;52.10;101342.22;4925642;28;97895;-63
2022/02/11 14:14:29;;;;;;;;;;;;;;;17.11;52.21;101343.88;4938633;28;106827;-63
2022/02/11 14:16:58;;;;;;;;;;;;;;;17.14;52.08;101345.22;4938290;28;98308;-63
2022/02/11 14:19:27;;;;;;;;;;;;;;;17.20;52.21;101343.25;4937027;28;98637;-63
2022/02/11 14:22:00;;;;;;;;;;;;;;;17.25;52.09;101345.91;4937517;28;99149;-63
2022/02/11 14:24:27;;;;;;;;;;;;;;;17.26;52.02;101353.00;4933450;28;99018;-63
2022/02/11 14:26:53;;;;;;;;;;;;;;;17.24;52.21;101357.91;4936771;28;119199;-56
2022/02/11 14:29:20;;;;;;;;;;;;;;;17.23;52.20;101368.00;4933794;28;98352;-57
2022/02/11 14:31:46;;;;;;;;;;;;;;;17.22;52.21;101360.13;4935228;28;98231;-63
2022/02/11 14:34:13;;;;;;;;;;;;;;;17.23;52.21;101369.91;4934279;28;97916;-56
2022/02/11 14:36:39;;;;;;;;;;;;;;;17.23;52.08;101375.38;4930975;28;115885;-56
2022/02/11 14:39:06;;;;;;;;;;;;;;;17.20;52.06;101378.66;4932639;28;100901;-56
2022/02/11 14:41:47;;;;;;;;;;;;;;;17.20;52.15;101387.63;4927985;28;114654;-63
2022/02/11 14:44:20;;;;;;;;;;;;;;;17.22;52.03;101390.91;4929408;28;97939;-56
2022/02/11 14:46:47;;;;;;;;;;;;;;;17.23;52.18;101397.16;4934215;28;98976;-63
2022/02/11 14:49:13;;;;;;;;;;;;;;;17.19;52.10;101396.94;4932337;28;97886;-56
2022/02/11 14:51:39;;;;;;;;;;;;;;;17.15;52.23;101402.13;4935909;28;97824;-56
2022/02/11 14:54:08;;;;;;;;;;;;;;;17.10;52.26;101399.47;4928449;28;99052;-63
2022/02/11 14:56:35;;;;;;;;;;;;;;;17.07;52.25;101401.97;4935820;28;98561;-62
2022/02/11 14:59:01;;;;;;;;;;;;;;;17.03;52.25;101401.72;4934779;28;97919;-63
2022/02/11 15:01:27;;;;;;;;;;;;;;;17.02;52.27;101407.47;4934032;28;126393;-55
2022/02/11 15:03:53;;;;;;;;;;;;;;;17.02;52.16;101407.47;4938136;28;104627;-57
2022/02/11 15:06:19;;;;;;;;;;;;;;;17.03;52.15;101403.63;4933816;28;122610;-63
2022/02/11 15:08:47;;;;;;;;;;;;;;;17.03;52.03;101407.16;4938259;28;129212;-56
2022/02/11 15:11:13;;;;;;;;;;;;;;;17.01;52.13;101412.06;4924382;28;98254;-56
2022/02/11 15:13:39;;;;;;;;;;;;;;;16.96;52.13;101414.06;4939345;28;97917;-62
2022/02/11 15:16:05;;;;;;;;;;;;;;;16.93;52.22;101416.22;4929639;28;128355;-56
2022/02/11 15:18:31;;;;;;;;;;;;;;;16.90;52.17;101425.00;4936274;28;117984;-56
2022/02/11 15:21:05;;;;;;;;;;;;;;;16.88;52.08;101420.94;4932883;28;127563;-63
2022/02/11 15:23:38;;;;;;;;;;;;;;;16.85;52.14;101424.22;4937591;28;98346;-56
2022/02/11 15:26:06;;;;;;;;;;;;;;;16.80;52.25;101427.81;4937529;28;98793;-56
2022/02/11 15:28:37;;;;;;;;;;;;;;;16.75;52.38;101425.13;4931461;28;98972;-56
2022/02/11 15:31:04;;;;;;;;;;;;;;;16.71;52.18;101428.69;4937069;28;97838;-57
2022/02/11 15:33:30;;;;;;;;;;;;;;;16.68;52.44;101432.78;4939048;28;98207;-56
2022/02/11 15:35:56;;;;;;;;;;;;;;;16.64;52.29;101445.34;4926898;28;115735;-63
2022/02/11 15:38:22;;;;;;;;;;;;;;;16.61;52.53;101448.63;4937589;28;117368;-62
2022/02/11 15:40:48;;;;;;;;;;;;;;;16.59;52.42;101448.91;4937565;28;115514;-56
2022/02/11 15:43:15;;;;;;;;;;;;;;;16.55;52.53;101455.22;4939550;28;97862;-63
2022/02/11 15:45:41;;;;;;;;;;;;;;;16.52;52.72;101461.22;4933865;28;98817;-63
2022/02/11 15:48:07;;;;;;;;;;;;;;;16.49;52.73;101459.06;4938538;28;98831;-63
2022/02/11 15:50:33;;;;;;;;;;;;;;;16.45;52.39;101462.34;4937770;28;98595;-63
2022/02/11 15:52:59;;;;;;;;;;;;;;;16.45;52.51;101472.41;4937927;28;98239;-56
2022/02/11 15:55:25;;;;;;;;;;;;;;;16.41;52.46;101466.72;4932364;28;128947;-56
2022/02/11 15:57:51;;;;;;;;;;;;;;;16.38;52.51;101471.91;4932783;28;127845;-63
2022/02/11 16:00:17;;;;;;;;;;;;;;;16.36;52.49;101480.34;4936258;28;128036;-56
2022/02/11 16:02:43;;;;;;;;;;;;;;;16.33;52.55;101485.53;4937783;28;116381;-56
2022/02/11 16:05:09;;;;;;;;;;;;;;;16.31;52.49;101491.28;4921522;28;98296;-62
2022/02/11 16:07:36;;;;;;;;;;;;;;;16.30;52.63;101494.25;4937244;28;103725;-63
2022/02/11 16:10:03;;;;;;;;;;;;;;;16.27;52.50;101495.66;4937768;28;97773;-63
2022/02/11 16:12:30;;;;;;;;;;;;;;;16.25;52.43;101502.47;4927704;28;109612;-63